AirNav   Air Wisconsin pilot careers
 
 684 users online  

KCHU Houston County Airport
Caledonia, Minnesota, USA

GOING TO CALEDONIA?


FAA INFORMATION EFFECTIVE 07 DECEMBER 2017

Location

FAA Identifier: CHU
Lat/Long: 43-35-46.8910N / 091-30-14.2070W
43-35.781517N / 091-30.236783W
43.5963586 / -91.5039464
(estimated)
Elevation: 1179 ft. / 359.4 m (surveyed)
Variation: 01E (1995)
From city: 3 miles S of CALEDONIA, MN
Time zone: UTC -6 (UTC -5 during Daylight Saving Time)
Zip code: 55921

Airport Operations

Airport use: Open to the public
Control tower: no
ARTCC: MINNEAPOLIS CENTER
FSS: PRINCETON FLIGHT SERVICE STATION
NOTAMs facility: PNM (NOTAM-D service available)
Attendance: UNATNDD
Wind indicator: lighted
Segmented circle: no
Lights: ACTVT MIRL RY 13/31 - CTAF.
Beacon: white-green (lighted land airport)
Operates sunset to sunrise.

Airport Communications

CTAF: 122.9
  • APCH/DEP SERVICE PROVIDED BY MINNEAPOLIS ARTCC ON FREQS 128.6/363.0 (LA CROSSE RCAG).

Nearby radio navigation aids

VOR radial/distance  VOR name  Freq  Var
ODIr184/19.0NODINE VORTAC117.9001E
UKNr359/19.0WAUKON VORTAC116.6005E
LSEr214/19.9LA CROSSE VOR/DME108.4001W
ONAr162/30.1WINONA VOR/DME111.4001E

Airport Services

Fuel available: 100LL
24 HR CREDIT CARD SVC AVBL.
Parking: tiedowns
Airframe service: NONE
Powerplant service: NONE
Bottled oxygen: NONE
Bulk oxygen: NONE

Runway Information

Runway 13/31

Dimensions: 3499 x 77 ft. / 1066 x 23 m
Surface: asphalt, in good condition
Weight bearing capacity: 
Single wheel: 10.0
Runway edge lights: medium intensity
RUNWAY 13  RUNWAY 31
Latitude: 43-35.985983N43-35.578483N
Longitude: 091-30.517050W091-29.957033W
Elevation: 1175.0 ft.1179.0 ft.
Gradient: 0.3%0.3%
Traffic pattern: leftleft
Runway heading: 134 magnetic, 135 true314 magnetic, 315 true
Markings: nonprecision, in good conditionnonprecision, in good condition
Touchdown point: no, no lightsyes, no lights

Airport Ownership and Management from official FAA records

Ownership: Publicly-owned
Owner: HOUSTON COUNTY
304 SO MARSHALL STREET
CALEDONIA, MN 55921
Phone 507-725-5803
Manager: BRIAN POGODZINSKI
1124 E WASHINGTON ST
CALEDONIA, MN 55921
Phone 507-725-3925

Airport Operational Statistics

Aircraft based on the field: 13
Single engine airplanes: 12
Multi engine airplanes: 1
    
Aircraft operations: avg 67/week *
57% local general aviation
43% transient general aviation
* for 12-month period ending 31 August 2015

Additional Remarks

TURF TWY 25 FT WIDE

Instrument Procedures

NOTE: All procedures below are presented as PDF files. If you need a reader for these files, you should download the free Adobe Reader.

NOT FOR NAVIGATION. Please procure official charts for flight.
FAA instrument procedures published for use between 7 December 2017 at 0901Z and 4 January 2018 at 0900Z.

 
IAPs - Instrument Approach Procedures
VOR/DME OR GPS-A   download (138KB)

Other nearby airports with instrument procedures:

55Y - Rushford Municipal-Robert W Bunke Field Airport (19 nm NW)
KLSE - La Crosse Regional Airport (20 nm NE)
KDEH - Decorah Municipal Airport (22 nm SW)
Y51 - Viroqua Municipal Airport (26 nm E)
KFKA - Fillmore County Airport (30 nm W)
 
Loc | Ops | Rwys | IFR | FBO | Links
Com | Nav | Svcs | Stats | Notes


 
Area around KCHU (Houston County Airport)
 
Road maps at: MapQuest Bing Google
 
Aerial photo
WARNING: Photo may not be current or correct
Aerial photo of KCHU (Houston County Airport)
Photo by Ed Wells
Photo taken 22-Sep-2007

Do you have a better or more recent aerial photo of Houston County Airport that you would like to share? If so, please send us your photo.

 
Sectional chart

 
Airport distance calculator
Flying to Houston County Airport? Find the distance to fly.

From to KCHU

Sunrise and sunset
Times for 18-Dec-2017
 Local
(UTC-6)
 Zulu
(UTC)
Morning civil twilight07:0313:03
Sunrise07:3513:35
Sunset16:3022:30
Evening civil twilight17:0323:03

Current date and time
Zulu (UTC)  18-Dec-2017 12:00:43
Local (UTC-6)  18-Dec-2017 06:00:43
 
METAR
KLSE 
20nm NE 
181153Z 22005KT 4SM BR OVC006 00/M02 A2989 RMK AO2 SLP132 70001 T00001017 10000 21006 58010
KDEH 
22nm SW 
181155Z AUTO 25004KT 2SM BR OVC003 M02/M02 A2988 RMK AO2
KY51 
26nm E 
181155Z AUTO 00000KT 1 1/4SM OVC003 M01/M01 A2986 RMK AO1 T10131013 11010 21013
KONA 
29nm N 
181155Z AUTO 22004KT 10SM OVC008 M01/M02 A2989 RMK AO2
KFKA 
30nm W 
181155Z AUTO 23004KT 3/4SM BR OVC001 M03/M04 A2987 RMK AO2 T10311037 11022 21033
KPDC 
39nm SE 
181155Z AUTO 24006KT 5SM HZ OVC010 00/M02 A2991 RMK AO2 T00001025 10007 20000
KCMY 
40nm NE 
181155Z AUTO 26003KT 3SM BR OVC004 M02/M02 A2988 RMK AO2 T10201021 11012 21020
TAF
KLSE 
20nm NE 
181130Z 1812/1912 20005KT 4SM BR OVC008 FM181800 20009KT P6SM SCT015 FM190100 23010KT P6SM BKN200 WS020/27040KT
NOTAMs
Click for the latest NOTAMs
NOTAMs are issued by the DoD/FAA and will open in a separate window not controlled by AirNav.

 

 
 

FBO, Fuel Providers, and Aircraft Ground Support

  
 Business Name 
 
 Contact 
 
 Services / Description 
 
Fuel Prices
 
Comments
  
Houston County 507-725-3925 Aviation fuel

More info about Houston County
Avfuel
100LL
SS $4.09 
 Updated 16-Nov-2017
 
   write
SS=Self service
Update Fuel Prices
 

Would you like to see your business listed on this page?

 If your business provides an interesting product or service to pilots, flight crews, aircraft, or users of the Houston County Airport, you should consider listing it here.  To start the listing process, click on the button below
 
Add a business
 

Other Pages about Houston County Airport

PDF page(s) from the Minnesota Airport Directory
 
Update a link
 
Copyright © AirNav, LLC. All rights reserved. Privacy Policy  Contact